首页
METAR-TAF:

METAR-TAF

机场 :

皮耶什佳尼, 斯洛伐克

纬度: 48-37-30N, 经度: 017-49-43E, 海拔: 163米

当前天气观测

该预报发布于23分钟前的04:30 UTC
风速3节,风向南转西南,在西转西南之间变化
温度 6°C
湿度 87%
气压 997 hPa
能见度10公里或以上

METAR: LZPP 260430Z AUTO 21003KT 170V250 9999 OVC100/// 06/04 Q0997

时间: 05:53 (04:53 UTC)

预报

该预报发布于11小时和53分钟前的17:00 UTC
预报有效从25日的 18点(UTC)到 26日的 03点(UTC)
风速8节,风向南转西南
能见度10公里或以上
少量云层高于3500英尺
多云层高于5000英尺
短暂存在
从 25日的 20点(UTC)到 26日的 02点(UTC)
风速6节,风向西
多云层高于3300英尺
小雨

TAF: LZPP 251700Z 2518/2603 20008KT 9999 FEW035 BKN050 TEMPO 2520/2602 28006KT -RA BKN033

超过4000个机场的气象观测和天气预报(METAR&TAF报告)。

可查询的气象台以黄色和红色小点在地图上表示。

将鼠标移到小点上方,可查看气象台名称。

然后点击查看天气观测和预报。

如需切换地图:点击带黑十字的绿色按钮放大地图;点击带横线的绿色按钮缩小地图;或者点击绿色箭头查看邻近地区的地图。


METAR-TAF: